Time;durP1;ratioP1;P1;durP2;ratioP2;P2;SDS_P1;SDS_P2;PMS_P1;PMS_P2;Temp;Humidity;BMP_temperature;BMP_pressure;BME280_temperature;BME280_humidity;BME280_pressure;Samples;Min_cycle;Max_cycle;Signal;HPM_P1;HPM_P2
2022/05/10 00:00:22;;;;;;;9.48;6.95;;;;;;;;;;5087177;28;20077;-89
2022/05/10 00:02:51;;;;;;;11.07;7.40;;;;;;;;;;5085508;28;20048;-89
2022/05/10 00:05:19;;;;;;;8.52;6.43;;;;;;;;;;5078345;28;20544;-89
2022/05/10 00:07:45;;;;;;;11.05;7.32;;;;;;;;;;5088943;28;20188;-89
2022/05/10 00:10:13;;;;;;;10.02;7.75;;;;;;;;;;5089055;28;20047;-89
2022/05/10 00:12:40;;;;;;;13.23;8.20;;;;;;;;;;5088233;28;20156;-88
2022/05/10 00:15:07;;;;;;;8.85;6.95;;;;;;;;;;5087265;28;20152;-88
2022/05/10 00:17:37;;;;;;;11.85;8.40;;;;;;;;;;5086793;28;20048;-88
2022/05/10 00:20:05;;;;;;;12.13;8.52;;;;;;;;;;5087898;28;20055;-88
2022/05/10 00:22:32;;;;;;;10.45;8.13;;;;;;;;;;5086587;28;20048;-89
2022/05/10 00:24:58;;;;;;;10.80;8.13;;;;;;;;;;5084119;28;20051;-88
2022/05/10 00:27:26;;;;;;;11.43;8.07;;;;;;;;;;5079641;28;20546;-89
2022/05/10 00:29:53;;;;;;;12.32;8.60;;;;;;;;;;5087582;28;20102;-88
2022/05/10 00:32:20;;;;;;;10.30;7.97;;;;;;;;;;5086565;28;20048;-88
2022/05/10 00:34:47;;;;;;;11.60;7.95;;;;;;;;;;5081082;28;20097;-88
2022/05/10 00:37:15;;;;;;;12.07;7.75;;;;;;;;;;5077926;28;20136;-88
2022/05/10 00:39:41;;;;;;;9.95;7.20;;;;;;;;;;5081369;28;20052;-89
2022/05/10 00:42:13;;;;;;;9.95;7.10;;;;;;;;;;5085656;28;20101;-89
2022/05/10 00:44:45;;;;;;;10.48;7.20;;;;;;;;;;5084916;28;20048;-89
2022/05/10 00:47:15;;;;;;;10.32;7.18;;;;;;;;;;5077860;28;20044;-88
2022/05/10 00:49:44;;;;;;;9.38;7.25;;;;;;;;;;5088498;28;20056;-88
2022/05/10 00:52:15;;;;;;;8.88;7.05;;;;;;;;;;5082290;28;20043;-88
2022/05/10 00:54:45;;;;;;;13.50;9.05;;;;;;;;;;5087369;28;20048;-89
2022/05/10 00:57:18;;;;;;;11.50;8.20;;;;;;;;;;5084066;28;20048;-89
2022/05/10 00:59:54;;;;;;;10.77;7.72;;;;;;;;;;5087944;28;20639;-89
2022/05/10 01:02:22;;;;;;;;;;;;;;;;;;5085755;28;20040;-89
2022/05/10 01:04:52;;;;;;;10.60;7.80;;;;;;;;;;5080174;28;19924;-89
2022/05/10 01:07:23;;;;;;;10.98;8.77;;;;;;;;;;5086651;28;20094;-89
2022/05/10 01:09:53;;;;;;;9.27;6.93;;;;;;;;;;5086611;28;20098;-88
2022/05/10 01:12:26;;;;;;;11.20;9.00;;;;;;;;;;5085322;28;20040;-88
2022/05/10 01:14:58;;;;;;;10.70;7.88;;;;;;;;;;5077096;28;20540;-88
2022/05/10 01:17:25;;;;;;;13.20;8.15;;;;;;;;;;5085057;28;20051;-89
2022/05/10 01:19:51;;;;;;;10.45;7.20;;;;;;;;;;5078952;28;20052;-89
2022/05/10 01:22:34;;;;;;;10.15;7.20;;;;;;;;;;5087258;28;20044;-89
2022/05/10 01:25:14;;;;;;;10.20;7.65;;;;;;;;;;5073130;28;20048;-89
2022/05/10 01:27:48;;;;;;;10.98;8.75;;;;;;;;;;5086580;28;20048;-89
2022/05/10 01:30:17;;;;;;;8.25;6.78;;;;;;;;;;5077774;28;20066;-89
2022/05/10 01:35:38;;;;;;;9.68;7.00;;;;;;;;;;5085843;28;20101;-89
2022/05/10 01:38:08;;;;;;;13.90;7.60;;;;;;;;;;5084574;28;20052;-89
2022/05/10 01:40:37;;;;;;;9.50;7.30;;;;;;;;;;5082334;28;20136;-89
2022/05/10 01:43:08;;;;;;;9.23;7.45;;;;;;;;;;5083390;28;20055;-89
2022/05/10 01:45:38;;;;;;;9.77;7.57;;;;;;;;;;5081188;28;20044;-89
2022/05/10 01:48:07;;;;;;;9.05;7.43;;;;;;;;;;5086596;28;20075;-89
2022/05/10 01:50:39;;;;;;;11.35;7.95;;;;;;;;;;5083181;28;20052;-89
2022/05/10 01:53:09;;;;;;;8.95;6.93;;;;;;;;;;5075643;28;20101;-88
2022/05/10 01:55:36;;;;;;;12.65;6.95;;;;;;;;;;5082120;28;20119;-88
2022/05/10 01:58:06;;;;;;;9.65;7.38;;;;;;;;;;5084976;28;20068;-88
2022/05/10 02:00:34;;;;;;;10.02;7.32;;;;;;;;;;5082229;28;20087;-88
2022/05/10 02:03:06;;;;;;;11.25;8.13;;;;;;;;;;5085647;28;20048;-89
2022/05/10 02:05:37;;;;;;;10.70;7.55;;;;;;;;;;5080833;28;20089;-89
2022/05/10 02:08:10;;;;;;;10.00;7.13;;;;;;;;;;5086892;28;20137;-89
2022/05/10 02:10:38;;;;;;;12.07;8.60;;;;;;;;;;5083531;28;20147;-89
2022/05/10 02:13:09;;;;;;;10.68;7.85;;;;;;;;;;5087808;28;20084;-89
2022/05/10 02:15:39;;;;;;;9.85;8.60;;;;;;;;;;5080819;28;20550;-89
2022/05/10 02:18:12;;;;;;;10.30;7.55;;;;;;;;;;5087324;28;20087;-89
2022/05/10 02:20:43;;;;;;;10.05;7.47;;;;;;;;;;5086297;28;20105;-88
2022/05/10 02:23:14;;;;;;;13.07;7.75;;;;;;;;;;5087029;28;20518;-89
2022/05/10 02:25:44;;;;;;;11.32;8.38;;;;;;;;;;5085154;28;20105;-88
2022/05/10 02:28:15;;;;;;;9.65;7.63;;;;;;;;;;5084425;28;20542;-88
2022/05/10 02:30:42;;;;;;;11.27;7.75;;;;;;;;;;5077572;28;20076;-88
2022/05/10 02:33:13;;;;;;;12.85;9.43;;;;;;;;;;5086050;28;20051;-88
2022/05/10 02:35:49;;;;;;;11.27;8.45;;;;;;;;;;5085635;28;20109;-88
2022/05/10 02:38:18;;;;;;;9.18;7.65;;;;;;;;;;5086621;28;20122;-88
2022/05/10 02:40:46;;;;;;;9.90;7.63;;;;;;;;;;5081932;28;20084;-88
2022/05/10 02:43:16;;;;;;;10.05;7.20;;;;;;;;;;5083125;28;20823;-88
2022/05/10 02:45:43;;;;;;;10.85;7.78;;;;;;;;;;5080872;28;20131;-88
2022/05/10 02:48:18;;;;;;;9.73;7.72;;;;;;;;;;5085721;28;20089;-88
2022/05/10 02:50:44;;;;;;;10.02;6.70;;;;;;;;;;5084565;28;20052;-88
2022/05/10 02:53:11;;;;;;;10.90;8.18;;;;;;;;;;5084066;28;20044;-88
2022/05/10 02:55:43;;;;;;;9.07;7.20;;;;;;;;;;5084144;28;20071;-88
2022/05/10 02:58:23;;;;;;;10.80;8.13;;;;;;;;;;5082316;28;20037;-88
2022/05/10 03:00:53;;;;;;;11.13;8.25;;;;;;;;;;5080881;28;20577;-88
2022/05/10 03:03:23;;;;;;;12.02;8.90;;;;;;;;;;5085062;28;20040;-89
2022/05/10 03:05:50;;;;;;;12.48;8.82;;;;;;;;;;5086426;28;20546;-89
2022/05/10 03:08:16;;;;;;;9.60;7.72;;;;;;;;;;5086484;28;20040;-89
2022/05/10 03:10:43;;;;;;;10.40;7.65;;;;;;;;;;5086536;28;20052;-89
2022/05/10 03:13:10;;;;;;;11.65;7.72;;;;;;;;;;5086827;28;20125;-89
2022/05/10 03:15:36;;;;;;;11.20;8.32;;;;;;;;;;5083972;28;20093;-89
2022/05/10 03:18:03;;;;;;;10.65;8.00;;;;;;;;;;5078001;28;20075;-89
2022/05/10 03:20:31;;;;;;;11.40;7.45;;;;;;;;;;5085593;28;20091;-89
2022/05/10 03:22:58;;;;;;;9.85;7.78;;;;;;;;;;5080022;28;20132;-89
2022/05/10 03:25:25;;;;;;;10.43;7.78;;;;;;;;;;5081169;28;20046;-89
2022/05/10 03:27:52;;;;;;;10.60;7.70;;;;;;;;;;5083236;28;20332;-89
2022/05/10 03:30:19;;;;;;;13.45;9.95;;;;;;;;;;5084246;28;20056;-89
2022/05/10 03:32:46;;;;;;;11.20;8.23;;;;;;;;;;5083263;28;21756;-89
2022/05/10 03:35:15;;;;;;;10.75;8.25;;;;;;;;;;5085088;28;20036;-89
2022/05/10 03:37:43;;;;;;;15.32;8.10;;;;;;;;;;5085091;28;20451;-89
2022/05/10 03:40:11;;;;;;;11.98;8.43;;;;;;;;;;5084365;28;20133;-89
2022/05/10 03:42:44;;;;;;;12.80;8.30;;;;;;;;;;5079632;28;20185;-89
2022/05/10 03:45:12;;;;;;;11.68;8.80;;;;;;;;;;5077716;28;20068;-89
2022/05/10 03:47:39;;;;;;;11.18;8.50;;;;;;;;;;5084594;28;20051;-89
2022/05/10 03:50:08;;;;;;;11.38;8.27;;;;;;;;;;5080528;28;20044;-89
2022/05/10 03:52:35;;;;;;;10.93;8.07;;;;;;;;;;5075290;28;20109;-89
2022/05/10 03:55:04;;;;;;;12.25;8.00;;;;;;;;;;5078090;28;20162;-89
2022/05/10 03:57:31;;;;;;;14.43;8.27;;;;;;;;;;5075924;28;20056;-89
2022/05/10 03:59:57;;;;;;;11.68;7.95;;;;;;;;;;5074790;28;20102;-89
2022/05/10 04:02:24;;;;;;;10.25;7.57;;;;;;;;;;5080201;28;20076;-89
2022/05/10 04:04:51;;;;;;;11.70;8.07;;;;;;;;;;5069646;28;20124;-89
2022/05/10 04:07:17;;;;;;;9.60;7.15;;;;;;;;;;5083586;28;20044;-89
2022/05/10 04:09:44;;;;;;;10.60;8.07;;;;;;;;;;5090295;28;20075;-89
2022/05/10 04:12:12;;;;;;;10.23;7.53;;;;;;;;;;5086971;28;20036;-90
2022/05/10 04:14:38;;;;;;;10.52;7.32;;;;;;;;;;5088958;28;20826;-89
2022/05/10 04:17:05;;;;;;;12.00;8.93;;;;;;;;;;5083146;28;20032;-89
2022/05/10 04:19:32;;;;;;;12.02;8.00;;;;;;;;;;5088088;28;20076;-88
2022/05/10 04:21:59;;;;;;;10.32;7.43;;;;;;;;;;5088133;28;20111;-89
2022/05/10 04:24:25;;;;;;;9.90;7.63;;;;;;;;;;5089058;28;20048;-89
2022/05/10 04:26:52;;;;;;;11.57;7.88;;;;;;;;;;5085047;28;20105;-88
2022/05/10 04:29:20;;;;;;;10.57;7.97;;;;;;;;;;5082867;28;20145;-88
2022/05/10 04:31:46;;;;;;;12.82;8.02;;;;;;;;;;5077521;28;20154;-88
2022/05/10 04:34:13;;;;;;;9.82;7.00;;;;;;;;;;5082208;28;20067;-88
2022/05/10 04:36:40;;;;;;;8.60;6.60;;;;;;;;;;5085565;28;20039;-88
2022/05/10 04:39:07;;;;;;;11.25;8.23;;;;;;;;;;5088197;28;20056;-88
2022/05/10 04:41:34;;;;;;;10.05;7.00;;;;;;;;;;5088142;28;20075;-88
2022/05/10 04:44:02;;;;;;;10.40;7.40;;;;;;;;;;5082602;28;20396;-89
2022/05/10 04:46:32;;;;;;;10.18;7.70;;;;;;;;;;5086564;28;20163;-89
2022/05/10 04:48:59;;;;;;;11.30;8.18;;;;;;;;;;5087268;28;20048;-88
2022/05/10 04:51:26;;;;;;;11.65;8.35;;;;;;;;;;5085665;28;22346;-88
2022/05/10 04:53:52;;;;;;;10.18;8.07;;;;;;;;;;5087531;28;20044;-88
2022/05/10 04:56:19;;;;;;;10.02;7.82;;;;;;;;;;5085760;28;20781;-88
2022/05/10 04:58:46;;;;;;;11.32;8.35;;;;;;;;;;5086288;28;20151;-88
2022/05/10 05:01:15;;;;;;;10.95;8.32;;;;;;;;;;5077542;28;20574;-88
2022/05/10 05:03:45;;;;;;;11.25;7.35;;;;;;;;;;5079487;28;20645;-88
2022/05/10 05:06:12;;;;;;;10.55;8.35;;;;;;;;;;5078257;28;20070;-88
2022/05/10 05:08:39;;;;;;;10.00;7.88;;;;;;;;;;5089869;28;20484;-88
2022/05/10 05:11:06;;;;;;;11.43;8.40;;;;;;;;;;5089492;28;20065;-88
2022/05/10 05:13:33;;;;;;;13.45;8.48;;;;;;;;;;5089329;28;20056;-87
2022/05/10 05:15:59;;;;;;;11.48;8.40;;;;;;;;;;5086355;28;20044;-88
2022/05/10 05:18:26;;;;;;;12.10;8.77;;;;;;;;;;5085240;28;20044;-88
2022/05/10 05:20:54;;;;;;;12.77;9.52;;;;;;;;;;5082862;28;20136;-88
2022/05/10 05:23:23;;;;;;;10.80;8.23;;;;;;;;;;5084705;28;20048;-88
2022/05/10 05:25:52;;;;;;;15.13;9.95;;;;;;;;;;5086976;28;20056;-88
2022/05/10 05:28:19;;;;;;;13.48;9.00;;;;;;;;;;5082406;28;20052;-88
2022/05/10 05:30:45;;;;;;;13.20;9.02;;;;;;;;;;5086978;28;20071;-90
2022/05/10 05:33:13;;;;;;;14.63;10.10;;;;;;;;;;5088337;28;20079;-90
2022/05/10 05:35:40;;;;;;;13.50;8.88;;;;;;;;;;5086569;28;20534;-91
2022/05/10 05:38:08;;;;;;;11.77;8.98;;;;;;;;;;5088541;28;20075;-90
2022/05/10 05:40:35;;;;;;;12.07;8.98;;;;;;;;;;5087932;28;20533;-90
2022/05/10 05:43:01;;;;;;;11.50;9.38;;;;;;;;;;5088917;28;20098;-91
2022/05/10 05:45:28;;;;;;;11.75;10.13;;;;;;;;;;5085296;28;20156;-91
2022/05/10 05:47:55;;;;;;;13.88;11.05;;;;;;;;;;5089260;28;20645;-90
2022/05/10 05:50:23;;;;;;;12.40;10.35;;;;;;;;;;5086947;28;20101;-91
2022/05/10 05:52:50;;;;;;;12.38;10.05;;;;;;;;;;5088090;28;20466;-91
2022/05/10 05:55:20;;;;;;;13.77;9.35;;;;;;;;;;5085317;28;20076;-91
2022/05/10 05:57:47;;;;;;;16.08;11.00;;;;;;;;;;5088619;28;20052;-90
2022/05/10 06:00:16;;;;;;;13.30;10.25;;;;;;;;;;5088128;28;20048;-91
2022/05/10 06:02:42;;;;;;;14.88;11.38;;;;;;;;;;5068222;28;20071;-91
2022/05/10 06:05:09;;;;;;;14.77;10.05;;;;;;;;;;5078885;28;20075;-91
2022/05/10 06:07:36;;;;;;;13.65;10.18;;;;;;;;;;5083900;28;20097;-91
2022/05/10 06:10:04;;;;;;;23.77;14.52;;;;;;;;;;5086823;28;20044;-90
2022/05/10 06:12:32;;;;;;;21.30;15.57;;;;;;;;;;5088176;28;20048;-90
2022/05/10 06:14:59;;;;;;;24.95;16.67;;;;;;;;;;5084687;28;20129;-91
2022/05/10 06:17:26;;;;;;;22.33;15.10;;;;;;;;;;5088150;28;20802;-91
2022/05/10 06:19:53;;;;;;;22.05;15.27;;;;;;;;;;5086759;28;20054;-91
2022/05/10 06:22:19;;;;;;;18.63;13.18;;;;;;;;;;5087298;28;20048;-90
2022/05/10 06:24:46;;;;;;;15.88;12.32;;;;;;;;;;5087933;28;20094;-91
2022/05/10 06:27:15;;;;;;;15.48;11.55;;;;;;;;;;5087324;28;20078;-91
2022/05/10 06:29:43;;;;;;;15.65;12.00;;;;;;;;;;5086680;28;20105;-91
2022/05/10 06:32:11;;;;;;;19.02;11.75;;;;;;;;;;5086851;28;20117;-91
2022/05/10 06:34:39;;;;;;;16.20;11.73;;;;;;;;;;5087160;28;20044;-91
2022/05/10 06:38:15;;;;;;;14.60;10.98;;;;;;;;;;5082525;28;20086;-91
2022/05/10 06:39:53;;;;;;;13.63;10.50;;;;;;;;;;5086639;28;20052;-90
2022/05/10 06:42:22;;;;;;;13.32;10.68;;;;;;;;;;5087463;28;20071;-91
2022/05/10 06:44:50;;;;;;;13.15;10.43;;;;;;;;;;5083440;28;20060;-91
2022/05/10 06:47:17;;;;;;;14.20;10.27;;;;;;;;;;5086710;28;20538;-91
2022/05/10 06:49:44;;;;;;;13.85;10.57;;;;;;;;;;5073850;28;20053;-91
2022/05/10 06:52:10;;;;;;;12.27;9.88;;;;;;;;;;5087662;28;20203;-91
2022/05/10 06:54:37;;;;;;;14.88;11.05;;;;;;;;;;5087030;28;20084;-91
2022/05/10 06:57:04;;;;;;;13.73;10.45;;;;;;;;;;5087171;28;20084;-91
2022/05/10 06:59:31;;;;;;;14.20;11.70;;;;;;;;;;5085777;28;20076;-90
2022/05/10 07:01:58;;;;;;;13.73;10.75;;;;;;;;;;5086806;28;20075;-91
2022/05/10 07:04:25;;;;;;;13.27;10.60;;;;;;;;;;5086327;28;20044;-90
2022/05/10 07:06:52;;;;;;;13.25;10.85;;;;;;;;;;5083586;28;20128;-90
2022/05/10 07:09:19;;;;;;;11.55;10.32;;;;;;;;;;5086798;28;20083;-90
2022/05/10 07:11:46;;;;;;;11.80;9.75;;;;;;;;;;5086019;28;20059;-90
2022/05/10 07:14:12;;;;;;;11.57;10.35;;;;;;;;;;5087504;28;20087;-90
2022/05/10 07:16:39;;;;;;;12.32;9.98;;;;;;;;;;5082743;28;20131;-90
2022/05/10 07:19:07;;;;;;;12.65;10.68;;;;;;;;;;5087954;28;20056;-90
2022/05/10 07:21:34;;;;;;;11.90;10.18;;;;;;;;;;5085463;28;20244;-90
2022/05/10 07:24:01;;;;;;;12.57;10.13;;;;;;;;;;5086911;28;20076;-90
2022/05/10 07:26:27;;;;;;;14.52;10.45;;;;;;;;;;5081124;28;20044;-90
2022/05/10 15:32:21;;;;;;;4.32;2.33;;;;;;;;;;5102797;27;20414;-81
2022/05/10 15:34:47;;;;;;;3.97;2.38;;;;;;;;;;5104767;28;20075;-81
2022/05/10 15:37:15;;;;;;;4.28;2.10;;;;;;;;;;5104454;28;20028;-81
2022/05/10 15:39:42;;;;;;;3.88;2.45;;;;;;;;;;5106261;28;20031;-80
2022/05/10 15:42:11;;;;;;;2.83;2.00;;;;;;;;;;5102965;28;20040;-81
2022/05/10 15:44:38;;;;;;;2.63;2.10;;;;;;;;;;5105714;28;20863;-81
2022/05/10 15:47:05;;;;;;;3.50;2.75;;;;;;;;;;5104472;28;20037;-81
2022/05/10 15:49:33;;;;;;;3.33;2.65;;;;;;;;;;5106040;28;20049;-81
2022/05/10 15:52:02;;;;;;;4.80;2.72;;;;;;;;;;5098303;28;20035;-81
2022/05/10 15:54:28;;;;;;;5.47;2.83;;;;;;;;;;5092409;28;20044;-81
2022/05/10 15:56:55;;;;;;;6.53;3.15;;;;;;;;;;5099856;28;20032;-82
2022/05/10 15:59:22;;;;;;;4.45;3.60;;;;;;;;;;5100790;28;20040;-81
2022/05/10 16:01:48;;;;;;;6.47;3.90;;;;;;;;;;5098283;28;20043;-80
2022/05/10 16:04:16;;;;;;;4.45;3.03;;;;;;;;;;5099791;28;20122;-81
2022/05/10 16:06:44;;;;;;;4.13;2.80;;;;;;;;;;5099293;28;20043;-80
2022/05/10 16:09:11;;;;;;;4.53;3.78;;;;;;;;;;5096844;28;20032;-81
2022/05/10 16:11:38;;;;;;;6.43;2.20;;;;;;;;;;5102685;28;20040;-80
2022/05/10 16:14:07;;;;;;;4.97;2.58;;;;;;;;;;5093194;28;20056;-79
2022/05/10 16:16:34;;;;;;;4.93;2.50;;;;;;;;;;5088778;28;20044;-79
2022/05/10 16:19:00;;;;;;;2.90;2.20;;;;;;;;;;5095775;28;20032;-79
2022/05/10 16:21:28;;;;;;;2.72;2.13;;;;;;;;;;5097661;28;20043;-79
2022/05/10 16:23:56;;;;;;;4.72;2.47;;;;;;;;;;5096162;28;20028;-79
2022/05/10 16:31:52;;;;;;;3.83;2.60;;;;;;;;;;5095515;28;20953;-79
2022/05/10 16:34:20;;;;;;;2.50;2.03;;;;;;;;;;5099724;28;20051;-81
2022/05/10 16:36:46;;;;;;;3.40;2.33;;;;;;;;;;5094789;28;20085;-78
2022/05/10 16:39:15;;;;;;;3.15;2.40;;;;;;;;;;5091685;28;20051;-79
2022/05/10 16:41:42;;;;;;;5.40;2.65;;;;;;;;;;5092228;28;20032;-79
2022/05/10 16:44:09;;;;;;;4.45;2.83;;;;;;;;;;5084626;28;20067;-79
2022/05/10 16:46:35;;;;;;;3.20;2.40;;;;;;;;;;5084841;28;20043;-78
2022/05/10 16:49:03;;;;;;;3.58;2.85;;;;;;;;;;5083805;28;20047;-79
2022/05/10 16:51:30;;;;;;;3.78;2.75;;;;;;;;;;5084645;28;20037;-79
2022/05/10 16:53:57;;;;;;;3.03;2.28;;;;;;;;;;5081325;28;20055;-79
2022/05/10 16:56:24;;;;;;;3.58;2.53;;;;;;;;;;5083440;28;20067;-80
2022/05/10 16:58:51;;;;;;;3.42;2.50;;;;;;;;;;5087151;28;20033;-79
2022/05/10 17:01:18;;;;;;;3.25;2.50;;;;;;;;;;5080381;28;20047;-79
2022/05/10 17:03:45;;;;;;;4.22;2.78;;;;;;;;;;5083729;28;20037;-79
2022/05/10 17:06:11;;;;;;;4.78;3.67;;;;;;;;;;5079537;28;20025;-79
2022/05/10 17:08:38;;;;;;;4.53;3.05;;;;;;;;;;5082262;28;20099;-79
2022/05/10 17:11:05;;;;;;;4.28;2.80;;;;;;;;;;5084647;28;20057;-80
2022/05/10 17:13:35;;;;;;;6.78;2.85;;;;;;;;;;5080029;28;20073;-79
2022/05/10 17:16:02;;;;;;;3.42;2.60;;;;;;;;;;5083162;28;20024;-80
2022/05/10 17:18:28;;;;;;;5.75;2.80;;;;;;;;;;5083115;28;20036;-79
2022/05/10 17:21:00;;;;;;;3.92;3.10;;;;;;;;;;5083558;28;20040;-79
2022/05/10 17:23:27;;;;;;;4.30;2.75;;;;;;;;;;5087327;28;20036;-79
2022/05/10 17:25:53;;;;;;;3.58;2.90;;;;;;;;;;5079471;28;21176;-80
2022/05/10 17:28:38;;;;;;;5.72;3.42;;;;;;;;;;5083489;28;20040;-78
2022/05/10 17:31:07;;;;;;;3.42;2.58;;;;;;;;;;5082553;28;20080;-79
2022/05/10 17:33:34;;;;;;;3.85;2.65;;;;;;;;;;5085468;28;20037;-79
2022/05/10 17:36:00;;;;;;;5.20;2.90;;;;;;;;;;5083254;28;20033;-78
2022/05/10 17:38:27;;;;;;;9.13;2.80;;;;;;;;;;5077840;28;20033;-79
2022/05/10 17:40:53;;;;;;;6.40;3.25;;;;;;;;;;5083135;28;20055;-79
2022/05/10 17:43:20;;;;;;;6.05;3.55;;;;;;;;;;5081972;28;20927;-78
2022/05/10 17:45:46;;;;;;;4.05;3.22;;;;;;;;;;5083457;28;20131;-79
2022/05/10 17:48:14;;;;;;;4.82;3.38;;;;;;;;;;5084802;28;20048;-79
2022/05/10 17:50:41;;;;;;;6.03;3.72;;;;;;;;;;5085106;28;20038;-79
2022/05/10 17:53:07;;;;;;;6.30;3.63;;;;;;;;;;5081229;28;20048;-79
2022/05/10 17:55:34;;;;;;;4.38;3.38;;;;;;;;;;5087859;28;20052;-80
2022/05/10 17:58:02;;;;;;;6.20;3.20;;;;;;;;;;5084476;28;20031;-79
2022/05/10 18:00:28;;;;;;;4.53;3.03;;;;;;;;;;5084833;28;20055;-80
2022/05/10 18:02:57;;;;;;;4.95;3.25;;;;;;;;;;5083173;28;20027;-78
2022/05/10 18:05:25;;;;;;;4.97;2.80;;;;;;;;;;5082824;28;20044;-79
2022/05/10 18:07:53;;;;;;;4.97;3.67;;;;;;;;;;5081283;28;20044;-79
2022/05/10 18:10:20;;;;;;;5.72;3.58;;;;;;;;;;5084527;28;20072;-79
2022/05/10 18:12:46;;;;;;;4.82;3.10;;;;;;;;;;5086258;28;20036;-78
2022/05/10 18:15:13;;;;;;;5.03;3.33;;;;;;;;;;5082374;28;20040;-80
2022/05/10 18:17:39;;;;;;;4.78;3.40;;;;;;;;;;5080225;28;20055;-79
2022/05/10 18:20:07;;;;;;;4.78;3.40;;;;;;;;;;5086511;28;20055;-81
2022/05/10 18:22:35;;;;;;;5.30;3.13;;;;;;;;;;5088347;28;20310;-79
2022/05/10 18:25:02;;;;;;;4.75;3.45;;;;;;;;;;5083689;28;20045;-80
2022/05/10 18:27:29;;;;;;;21.63;12.30;;;;;;;;;;5085132;28;20033;-78
2022/05/10 18:29:57;;;;;;;13.02;7.95;;;;;;;;;;5081973;28;20084;-78
2022/05/10 18:32:23;;;;;;;8.07;6.00;;;;;;;;;;5083227;28;20067;-79
2022/05/10 18:34:50;;;;;;;9.27;6.40;;;;;;;;;;5086899;28;20025;-79
2022/05/10 18:37:16;;;;;;;6.57;5.60;;;;;;;;;;5082948;28;20104;-78
2022/05/10 18:39:44;;;;;;;8.07;5.45;;;;;;;;;;5081753;28;20029;-78
2022/05/10 18:42:11;;;;;;;5.72;5.07;;;;;;;;;;5079886;28;20025;-78
2022/05/10 18:44:38;;;;;;;6.00;5.22;;;;;;;;;;5081644;28;20041;-77
2022/05/10 18:47:05;;;;;;;6.57;4.55;;;;;;;;;;5084533;28;20107;-77
2022/05/10 18:49:31;;;;;;;4.90;3.83;;;;;;;;;;5074910;28;20037;-77
2022/05/10 18:51:57;;;;;;;5.13;3.83;;;;;;;;;;5081901;28;20052;-77
2022/05/10 18:54:24;;;;;;;4.75;3.92;;;;;;;;;;5080942;28;20028;-76
2022/05/10 18:56:53;;;;;;;4.95;4.15;;;;;;;;;;5086438;28;20088;-76
2022/05/10 18:59:20;;;;;;;4.30;3.63;;;;;;;;;;5081811;28;20044;-77
2022/05/10 19:01:46;;;;;;;6.60;4.05;;;;;;;;;;5079660;28;20027;-78
2022/05/10 19:04:13;;;;;;;5.63;3.72;;;;;;;;;;5083313;28;20039;-79
2022/05/10 19:06:39;;;;;;;5.43;3.72;;;;;;;;;;5080613;28;20122;-79
2022/05/10 19:09:06;;;;;;;6.47;4.22;;;;;;;;;;5076410;28;20049;-79
2022/05/10 19:11:33;;;;;;;5.90;4.25;;;;;;;;;;5082090;28;20056;-79
2022/05/10 19:14:00;;;;;;;5.05;3.92;;;;;;;;;;5084560;28;20028;-79
2022/05/10 19:16:27;;;;;;;6.07;3.97;;;;;;;;;;5085643;28;20044;-80
2022/05/10 19:18:53;;;;;;;5.43;3.78;;;;;;;;;;5082645;28;20052;-79
2022/05/10 19:21:20;;;;;;;6.40;3.70;;;;;;;;;;5083277;28;20071;-79
2022/05/10 19:23:46;;;;;;;6.57;4.13;;;;;;;;;;5081220;28;20048;-79
2022/05/10 19:26:15;;;;;;;6.22;4.03;;;;;;;;;;5082549;28;20032;-79
2022/05/10 19:28:44;;;;;;;5.68;4.25;;;;;;;;;;5081677;28;20036;-79
2022/05/10 19:31:13;;;;;;;7.20;3.78;;;;;;;;;;5079586;28;20053;-79
2022/05/10 19:33:40;;;;;;;6.28;4.45;;;;;;;;;;5082285;28;20028;-80
2022/05/10 19:36:07;;;;;;;4.35;3.38;;;;;;;;;;5088403;28;20037;-80
2022/05/10 19:38:35;;;;;;;5.50;3.80;;;;;;;;;;5090056;28;20040;-80
2022/05/10 19:41:03;;;;;;;6.43;4.03;;;;;;;;;;5091804;28;20044;-80
2022/05/10 19:43:30;;;;;;;5.15;4.10;;;;;;;;;;5086101;28;20039;-80
2022/05/10 19:46:04;;;;;;;9.15;4.18;;;;;;;;;;5088685;28;20020;-80
2022/05/10 19:48:37;;;;;;;5.68;4.03;;;;;;;;;;5087334;28;20036;-81
2022/05/10 19:51:04;;;;;;;5.18;4.15;;;;;;;;;;5088970;28;20074;-79
2022/05/10 19:53:30;;;;;;;5.25;3.45;;;;;;;;;;5086460;28;20025;-79
2022/05/10 19:55:57;;;;;;;5.57;4.05;;;;;;;;;;5087001;28;20029;-80
2022/05/10 19:58:24;;;;;;;5.25;3.67;;;;;;;;;;5085666;28;20044;-79
2022/05/10 20:00:51;;;;;;;7.13;4.68;;;;;;;;;;5086371;28;20032;-79
2022/05/10 20:06:06;;;;;;;7.35;3.95;;;;;;;;;;5088478;28;20059;-79
2022/05/10 20:08:33;;;;;;;5.85;5.07;;;;;;;;;;5083091;28;20048;-80
2022/05/10 20:11:00;;;;;;;7.15;3.85;;;;;;;;;;5082561;28;20035;-79
2022/05/10 20:13:27;;;;;;;5.45;4.20;;;;;;;;;;5085583;28;20076;-79
2022/05/10 20:15:55;;;;;;;6.97;4.38;;;;;;;;;;5084467;28;20040;-79
2022/05/10 20:18:22;;;;;;;6.25;4.28;;;;;;;;;;5090834;28;20051;-80
2022/05/10 20:20:50;;;;;;;6.93;4.13;;;;;;;;;;5093100;28;20048;-79
2022/05/10 20:23:19;;;;;;;5.30;3.72;;;;;;;;;;5091406;28;20036;-80
2022/05/10 20:25:46;;;;;;;6.15;4.25;;;;;;;;;;5091944;28;20028;-81
2022/05/10 20:28:15;;;;;;;4.68;3.60;;;;;;;;;;5088915;28;20048;-79
2022/05/10 20:30:44;;;;;;;5.65;3.80;;;;;;;;;;5089094;28;20050;-81
2022/05/10 20:33:11;;;;;;;4.45;3.53;;;;;;;;;;5088200;28;20092;-79
2022/05/10 20:35:38;;;;;;;5.40;4.20;;;;;;;;;;5086440;28;20033;-79
2022/05/10 20:38:05;;;;;;;6.88;4.60;;;;;;;;;;5089864;28;20044;-80
2022/05/10 20:40:33;;;;;;;6.32;4.53;;;;;;;;;;5084375;28;20045;-79
2022/05/10 20:43:01;;;;;;;6.53;4.47;;;;;;;;;;5090853;28;20074;-79
2022/05/10 20:45:32;;;;;;;7.60;4.57;;;;;;;;;;5084517;28;20051;-79
2022/05/10 20:47:59;;;;;;;6.53;4.07;;;;;;;;;;5085287;28;20025;-79
2022/05/10 20:50:25;;;;;;;5.72;4.10;;;;;;;;;;5083025;28;20147;-79
2022/05/10 20:52:52;;;;;;;6.88;4.50;;;;;;;;;;5082379;28;20044;-78
2022/05/10 20:55:20;;;;;;;6.70;4.88;;;;;;;;;;5085042;28;20041;-79
2022/05/10 20:57:49;;;;;;;5.55;4.00;;;;;;;;;;5086201;28;20048;-78
2022/05/10 21:00:17;;;;;;;5.80;4.47;;;;;;;;;;5081557;28;20041;-79
2022/05/10 21:02:44;;;;;;;6.20;4.30;;;;;;;;;;5085457;28;20048;-79
2022/05/10 21:05:13;;;;;;;5.55;4.32;;;;;;;;;;5083887;28;20044;-79
2022/05/10 21:10:24;;;;;;;6.63;4.38;;;;;;;;;;5086703;28;20063;-79
2022/05/10 21:12:52;;;;;;;6.85;4.60;;;;;;;;;;5086704;28;20021;-79
2022/05/10 21:15:19;;;;;;;5.13;4.07;;;;;;;;;;5084972;28;20106;-79
2022/05/10 21:17:46;;;;;;;5.85;4.95;;;;;;;;;;5086347;28;20040;-79
2022/05/10 21:20:13;;;;;;;5.78;4.30;;;;;;;;;;5083528;28;20044;-79
2022/05/10 21:22:40;;;;;;;5.85;4.35;;;;;;;;;;5084219;28;20052;-79
2022/05/10 21:25:07;;;;;;;6.25;4.97;;;;;;;;;;5082081;28;20060;-79
2022/05/10 21:27:35;;;;;;;5.55;3.92;;;;;;;;;;5085688;28;20036;-79
2022/05/10 21:32:50;;;;;;;4.68;3.50;;;;;;;;;;5085406;28;20055;-79
2022/05/10 21:35:18;;;;;;;7.18;4.07;;;;;;;;;;5083690;28;20044;-79
2022/05/10 21:37:44;;;;;;;6.57;4.43;;;;;;;;;;5081987;28;20040;-79
2022/05/10 21:40:12;;;;;;;5.78;4.50;;;;;;;;;;5085413;28;20033;-78
2022/05/10 21:42:39;;;;;;;6.15;4.30;;;;;;;;;;5085083;28;20048;-79
2022/05/10 21:45:09;;;;;;;6.88;4.82;;;;;;;;;;5085975;28;20044;-79
2022/05/10 21:47:36;;;;;;;6.03;4.32;;;;;;;;;;5083541;28;20047;-78
2022/05/10 21:50:03;;;;;;;7.07;5.07;;;;;;;;;;5083434;28;20060;-79
2022/05/10 21:52:30;;;;;;;7.50;5.45;;;;;;;;;;5087471;28;20024;-79
2022/05/10 21:54:56;;;;;;;7.03;4.18;;;;;;;;;;5082238;28;20044;-80
2022/05/10 21:57:23;;;;;;;7.95;4.97;;;;;;;;;;5088306;28;20043;-80
2022/05/10 21:59:49;;;;;;;5.30;4.15;;;;;;;;;;5090100;28;20032;-80
2022/05/10 22:02:17;;;;;;;6.65;3.72;;;;;;;;;;5084362;28;20057;-80
2022/05/10 22:04:44;;;;;;;4.97;3.92;;;;;;;;;;5081815;28;20032;-80
2022/05/10 22:07:10;;;;;;;6.15;4.65;;;;;;;;;;5093869;28;20033;-80
2022/05/10 22:09:37;;;;;;;6.35;4.30;;;;;;;;;;5081178;28;20025;-79
2022/05/10 22:12:04;;;;;;;6.47;4.15;;;;;;;;;;5073363;28;20047;-79
2022/05/10 22:14:32;;;;;;;5.68;4.28;;;;;;;;;;5079640;28;20032;-79
2022/05/10 22:16:59;;;;;;;5.88;4.30;;;;;;;;;;5069696;28;20045;-79
2022/05/10 22:19:27;;;;;;;6.68;4.47;;;;;;;;;;5073433;28;20036;-80
2022/05/10 22:21:54;;;;;;;6.47;4.43;;;;;;;;;;5071289;28;20048;-79
2022/05/10 22:24:21;;;;;;;7.40;4.75;;;;;;;;;;5077645;28;20040;-79
2022/05/10 22:26:48;;;;;;;5.25;4.00;;;;;;;;;;5072671;28;20101;-79
2022/05/10 22:29:14;;;;;;;5.30;4.05;;;;;;;;;;5071944;28;20044;-79
2022/05/10 22:31:41;;;;;;;7.05;4.40;;;;;;;;;;5072595;28;20052;-79
2022/05/10 22:34:08;;;;;;;6.25;4.25;;;;;;;;;;5074565;28;20045;-80
2022/05/10 22:36:38;;;;;;;5.63;3.97;;;;;;;;;;5093219;28;20264;-80
2022/05/10 22:39:04;;;;;;;6.03;3.70;;;;;;;;;;5079589;28;20049;-79
2022/05/10 22:41:31;;;;;;;6.20;4.22;;;;;;;;;;5071574;28;20044;-79
2022/05/10 22:43:57;;;;;;;6.35;4.50;;;;;;;;;;5080359;28;20053;-78
2022/05/10 22:46:24;;;;;;;5.80;3.88;;;;;;;;;;5078805;28;20051;-79
2022/05/10 22:48:50;;;;;;;6.00;4.25;;;;;;;;;;5078467;28;20124;-79
2022/05/10 22:51:17;;;;;;;6.68;4.10;;;;;;;;;;5085975;28;20048;-79
2022/05/10 22:53:45;;;;;;;7.10;4.63;;;;;;;;;;5082399;28;20025;-79
2022/05/10 22:56:12;;;;;;;5.28;3.80;;;;;;;;;;5091639;28;20028;-79
2022/05/10 22:58:40;;;;;;;5.25;4.13;;;;;;;;;;5090113;28;20037;-79